createdAt,value
2022-08-10T00:01:54.236Z,2.00
2022-08-10T00:04:24.542Z,1.70
2022-08-10T00:06:55.382Z,2.05
2022-08-10T00:09:23.257Z,1.85
2022-08-10T00:11:50.383Z,2.17
2022-08-10T00:14:17.533Z,2.05
2022-08-10T00:16:44.676Z,2.13
2022-08-10T00:19:11.677Z,2.17
2022-08-10T00:21:38.419Z,2.78
2022-08-10T00:24:05.251Z,1.90
2022-08-10T00:27:51.829Z,1.90
2022-08-10T00:29:19.145Z,2.15
2022-08-10T00:31:55.976Z,2.70
2022-08-10T00:34:26.141Z,1.73
2022-08-10T00:36:52.881Z,2.28
2022-08-10T00:39:19.647Z,2.08
2022-08-10T00:41:46.357Z,2.08
2022-08-10T00:44:29.162Z,2.35
2022-08-10T00:46:55.989Z,2.15
2022-08-10T00:49:22.691Z,2.05
2022-08-10T00:51:49.904Z,2.38
2022-08-10T00:54:24.785Z,2.33
2022-08-10T00:57:15.610Z,2.35
2022-08-10T00:59:59.525Z,2.17
2022-08-10T01:02:26.542Z,2.28
2022-08-10T01:05:00.119Z,2.35
2022-08-10T01:08:01.116Z,2.40
2022-08-10T01:10:36.947Z,2.35
2022-08-10T01:13:18.231Z,2.50
2022-08-10T01:16:00.600Z,2.25
2022-08-10T01:19:04.337Z,2.60
2022-08-10T01:22:08.858Z,2.03
2022-08-10T01:25:10.408Z,2.15
2022-08-10T01:27:56.805Z,2.40
2022-08-10T01:30:27.860Z,2.33
2022-08-10T01:33:05.430Z,2.70
2022-08-10T01:36:05.322Z,2.53
2022-08-10T01:38:37.047Z,2.30
2022-08-10T01:41:09.794Z,2.40
2022-08-10T01:43:41.802Z,2.42
2022-08-10T01:46:10.926Z,2.33
2022-08-10T01:48:43.958Z,2.50
2022-08-10T01:51:21.672Z,2.50
2022-08-10T01:53:54.495Z,2.50
2022-08-10T01:56:24.494Z,2.53
2022-08-10T01:59:01.232Z,2.38
2022-08-10T02:01:32.496Z,2.30
2022-08-10T02:04:06.102Z,2.55
2022-08-10T02:06:37.881Z,2.65
2022-08-10T02:09:07.616Z,2.15
2022-08-10T02:11:55.992Z,2.60
2022-08-10T02:14:33.940Z,2.45
2022-08-10T02:17:04.935Z,2.13
2022-08-10T02:19:35.210Z,2.30
2022-08-10T02:22:36.728Z,2.30
2022-08-10T02:24:52.375Z,3.08
2022-08-10T02:27:23.195Z,2.28
2022-08-10T02:29:52.265Z,2.58
2022-08-10T02:32:23.801Z,2.30
2022-08-10T02:35:06.308Z,2.40
2022-08-10T02:37:37.617Z,2.38
2022-08-10T02:40:04.875Z,2.22
2022-08-10T02:45:19.341Z,2.70
2022-08-10T02:45:33.854Z,2.40
2022-08-10T02:48:07.278Z,2.20
2022-08-10T02:50:36.571Z,2.20
2022-08-10T02:53:10.112Z,2.60
2022-08-10T02:56:06.484Z,2.30
2022-08-10T02:58:56.752Z,2.60
2022-08-10T03:01:31.228Z,2.50
2022-08-10T03:04:04.366Z,2.60
2022-08-10T03:06:37.074Z,2.70
2022-08-10T03:09:07.634Z,2.40
2022-08-10T03:12:34.857Z,2.60
2022-08-10T03:14:23.991Z,2.25
2022-08-10T03:16:52.399Z,2.63
2022-08-10T03:20:33.397Z,2.45
2022-08-10T03:22:08.462Z,2.70
2022-08-10T03:24:36.544Z,2.60
2022-08-10T03:27:05.033Z,2.58
2022-08-10T03:30:29.324Z,2.85
2022-08-10T03:32:20.667Z,2.85
2022-08-10T03:34:48.138Z,2.80
2022-08-10T03:37:14.868Z,2.95
2022-08-10T03:39:41.592Z,3.03
2022-08-10T03:42:12.847Z,2.60
2022-08-10T03:44:41.809Z,2.35
2022-08-10T03:47:15.956Z,2.70
2022-08-10T03:49:46.241Z,2.83
2022-08-10T03:52:14.149Z,2.58
2022-08-10T03:54:42.343Z,2.60
2022-08-10T03:57:09.295Z,2.78
2022-08-10T03:59:36.926Z,2.58
2022-08-10T04:02:43.490Z,2.55
2022-08-10T04:04:54.545Z,2.53
2022-08-10T04:07:21.626Z,3.22
2022-08-10T04:09:55.219Z,2.70
2022-08-10T04:12:23.526Z,2.75
2022-08-10T04:14:52.938Z,2.75
2022-08-10T04:18:04.982Z,2.75
2022-08-10T04:20:19.752Z,2.67
2022-08-10T04:22:51.092Z,2.63
2022-08-10T04:25:18.491Z,2.50
2022-08-10T04:27:46.168Z,2.70
2022-08-10T04:30:13.442Z,2.70
2022-08-10T04:32:41.530Z,2.78
2022-08-10T04:35:10.876Z,2.33
2022-08-10T04:37:47.388Z,2.42
2022-08-10T04:40:28.495Z,2.45
2022-08-10T04:43:01.294Z,2.42
2022-08-10T04:45:49.080Z,2.75
2022-08-10T04:48:40.527Z,2.63
2022-08-10T04:51:04.789Z,2.60
2022-08-10T04:53:32.171Z,3.00
2022-08-10T04:55:59.133Z,3.08
2022-08-10T04:58:25.817Z,2.53
2022-08-10T05:00:52.590Z,2.40
2022-08-10T05:03:27.932Z,2.60
2022-08-10T05:05:54.798Z,2.47
2022-08-10T05:08:23.790Z,2.47
2022-08-10T05:10:50.512Z,2.60
2022-08-10T05:13:17.201Z,2.45
2022-08-10T05:15:45.453Z,2.20
2022-08-10T05:18:12.390Z,2.78
2022-08-10T05:20:39.284Z,2.50
2022-08-10T05:23:05.998Z,2.45
2022-08-10T05:25:37.357Z,2.45
2022-08-10T05:28:06.796Z,2.50
2022-08-10T05:30:34.385Z,2.47
2022-08-10T05:33:05.156Z,2.67
2022-08-10T05:35:55.452Z,2.38
2022-08-10T05:38:22.923Z,2.40
2022-08-10T05:40:50.120Z,2.47
2022-08-10T05:43:18.913Z,2.58
2022-08-10T05:46:17.164Z,2.40
2022-08-10T05:48:54.952Z,2.35
2022-08-10T05:51:20.742Z,2.55
2022-08-10T05:54:00.853Z,2.40
2022-08-10T05:56:55.132Z,2.30
2022-08-10T06:00:33.689Z,2.33
2022-08-10T06:02:41.307Z,2.30
2022-08-10T06:04:55.521Z,2.33
2022-08-10T06:07:27.265Z,2.38
2022-08-10T06:09:59.202Z,2.20
2022-08-10T06:12:30.183Z,2.30
2022-08-10T06:15:05.392Z,2.40
2022-08-10T06:17:38.307Z,2.40
2022-08-10T06:20:05.999Z,3.00
2022-08-10T06:22:33.316Z,2.30
2022-08-10T06:25:32.383Z,2.45
2022-08-10T06:27:50.745Z,2.10
2022-08-10T06:30:20.742Z,2.70
2022-08-10T06:32:52.449Z,2.47
2022-08-10T06:35:19.903Z,2.35
2022-08-10T06:37:50.770Z,2.08
2022-08-10T06:40:19.073Z,2.63
2022-08-10T06:42:48.921Z,2.40
2022-08-10T06:45:27.485Z,2.50
2022-08-10T06:47:59.187Z,1.98
2022-08-10T06:51:06.552Z,2.30
2022-08-10T06:53:54.019Z,2.67
2022-08-10T06:56:36.828Z,2.10
2022-08-10T06:59:27.709Z,2.38
2022-08-10T07:02:05.441Z,2.40
2022-08-10T07:04:42.428Z,2.47
2022-08-10T07:07:12.667Z,2.40
2022-08-10T07:09:40.780Z,1.90
2022-08-10T07:12:09.659Z,2.30
2022-08-10T07:14:44.336Z,2.22
2022-08-10T07:17:15.590Z,2.53
2022-08-10T07:19:50.133Z,2.08
2022-08-10T07:23:51.872Z,2.17
2022-08-10T07:25:12.414Z,2.42
2022-08-10T07:27:59.895Z,2.00
2022-08-10T07:30:32.086Z,2.00
2022-08-10T07:33:01.515Z,2.15
2022-08-10T07:35:36.409Z,1.92
2022-08-10T07:38:12.869Z,2.28
2022-08-10T07:40:42.206Z,2.20
2022-08-10T07:43:09.906Z,2.15
2022-08-10T07:45:38.703Z,2.05
2022-08-10T07:48:15.010Z,2.25
2022-08-10T07:50:44.848Z,1.90
2022-08-10T07:53:17.782Z,2.40
2022-08-10T07:56:04.328Z,2.10
2022-08-10T07:58:39.271Z,1.95
2022-08-10T08:01:06.098Z,2.00
2022-08-10T08:03:33.847Z,2.30
2022-08-10T08:06:11.745Z,2.17
2022-08-10T08:08:42.399Z,2.10
2022-08-10T08:11:25.989Z,2.20
2022-08-10T08:13:54.514Z,2.13
2022-08-10T08:16:23.663Z,2.00
2022-08-10T08:19:23.947Z,2.20
2022-08-10T08:24:06.420Z,2.40
2022-08-10T08:24:32.852Z,2.08
2022-08-10T08:27:02.980Z,2.13
2022-08-10T08:29:35.039Z,2.22
2022-08-10T08:32:04.203Z,2.17
2022-08-10T08:34:37.691Z,2.30
2022-08-10T08:37:07.151Z,2.03
2022-08-10T08:39:34.222Z,2.20
2022-08-10T08:42:32.213Z,2.05
2022-08-10T08:45:23.384Z,2.20
2022-08-10T08:48:11.372Z,1.97
2022-08-10T08:50:57.701Z,1.92
2022-08-10T08:54:02.314Z,1.92
2022-08-10T08:57:07.875Z,2.03
2022-08-10T08:59:55.992Z,2.22
2022-08-10T09:02:54.792Z,2.20
2022-08-10T09:05:58.474Z,1.75
2022-08-10T09:09:02.162Z,2.10
2022-08-10T09:11:45.675Z,2.10
2022-08-10T09:14:25.767Z,1.90
2022-08-10T09:17:06.824Z,2.00
2022-08-10T09:19:51.334Z,2.00
2022-08-10T09:22:47.455Z,1.98
2022-08-10T09:25:38.243Z,2.45
2022-08-10T09:28:06.666Z,2.20
2022-08-10T09:31:23.130Z,1.80
2022-08-10T09:36:21.068Z,1.60
2022-08-10T09:37:14.424Z,1.50
2022-08-10T09:40:46.298Z,1.90
2022-08-10T09:43:24.943Z,1.70
2022-08-10T09:46:22.632Z,1.60
2022-08-10T09:49:12.184Z,1.52
2022-08-10T09:52:09.916Z,1.10
2022-08-10T09:54:52.426Z,1.10
2022-08-10T09:57:44.292Z,1.33
2022-08-10T10:00:17.737Z,1.55
2022-08-10T10:03:09.629Z,1.30
2022-08-10T10:05:57.475Z,1.25
2022-08-10T10:08:42.950Z,1.10
2022-08-10T10:11:28.810Z,1.15
2022-08-10T10:14:02.706Z,1.27
2022-08-10T10:16:34.213Z,1.17
2022-08-10T10:19:14.354Z,1.27
2022-08-10T10:21:55.877Z,1.20
2022-08-10T10:24:56.424Z,1.27
2022-08-10T10:27:32.370Z,1.10
2022-08-10T10:30:08.187Z,1.05
2022-08-10T10:32:37.305Z,1.08
2022-08-10T10:35:09.861Z,0.93
2022-08-10T10:38:01.511Z,1.13
2022-08-10T10:40:27.990Z,1.23
2022-08-10T10:43:11.176Z,1.25
2022-08-10T10:46:03.158Z,1.33
2022-08-10T10:49:08.325Z,1.25
2022-08-10T10:51:44.812Z,1.08
2022-08-10T10:54:33.774Z,1.08
2022-08-10T10:57:15.295Z,1.17
2022-08-10T11:00:00.742Z,1.85
2022-08-10T11:02:32.483Z,1.15
2022-08-10T11:05:26.734Z,1.13
2022-08-10T11:08:14.441Z,1.13
2022-08-10T11:11:14.340Z,1.42
2022-08-10T11:14:25.481Z,1.60
2022-08-10T11:17:00.212Z,0.98
2022-08-10T11:20:01.747Z,1.33
2022-08-10T11:22:57.254Z,1.20
2022-08-10T11:25:29.770Z,1.10
2022-08-10T11:28:18.102Z,1.48
2022-08-10T11:30:54.976Z,1.45
2022-08-10T11:34:04.209Z,1.10
2022-08-10T11:36:43.052Z,1.30
2022-08-10T11:39:49.378Z,1.13
2022-08-10T11:42:31.658Z,1.40
2022-08-10T11:45:08.895Z,1.23
2022-08-10T11:47:56.853Z,1.30
2022-08-10T11:50:29.535Z,1.13
2022-08-10T11:53:54.478Z,1.38
2022-08-10T11:56:44.589Z,1.77
2022-08-10T11:59:30.606Z,1.00
2022-08-10T12:01:58.213Z,1.17
2022-08-10T12:04:26.027Z,1.25
2022-08-10T12:06:56.278Z,1.20
2022-08-10T12:10:11.450Z,1.27
2022-08-10T12:12:12.942Z,1.45
2022-08-10T12:14:51.851Z,1.40
2022-08-10T12:18:00.840Z,1.38
2022-08-10T12:20:35.814Z,1.48
2022-08-10T12:23:26.947Z,1.55
2022-08-10T12:26:09.728Z,1.50
2022-08-10T12:29:03.307Z,1.48
2022-08-10T12:31:38.414Z,1.70
2022-08-10T12:34:30.069Z,1.55
2022-08-10T12:37:35.499Z,1.23
2022-08-10T12:40:34.998Z,1.30
2022-08-10T12:44:06.225Z,1.45
2022-08-10T12:46:39.562Z,1.50
2022-08-10T12:49:21.016Z,1.73
2022-08-10T12:52:06.178Z,1.88
2022-08-10T12:54:38.063Z,1.60
2022-08-10T12:57:09.857Z,1.58
2022-08-10T12:59:43.126Z,1.35
2022-08-10T13:02:17.670Z,1.50
2022-08-10T13:04:48.760Z,1.40
2022-08-10T13:08:24.677Z,1.50
2022-08-10T13:10:17.098Z,1.27
2022-08-10T13:12:48.138Z,1.67
2022-08-10T13:15:48.411Z,1.50
2022-08-10T13:18:18.589Z,1.47
2022-08-10T13:20:53.487Z,1.23
2022-08-10T13:23:24.973Z,1.40
2022-08-10T13:25:55.007Z,1.27
2022-08-10T13:28:35.768Z,1.23
2022-08-10T13:31:16.945Z,1.38
2022-08-10T13:34:42.464Z,1.45
2022-08-10T13:37:00.192Z,1.35
2022-08-10T13:39:59.071Z,1.48
2022-08-10T13:42:31.820Z,1.40
2022-08-10T13:45:04.936Z,1.35
2022-08-10T13:47:48.946Z,1.33
2022-08-10T13:50:33.579Z,1.38
2022-08-10T13:53:13.291Z,1.30
2022-08-10T13:55:54.244Z,1.40
2022-08-10T13:58:43.211Z,1.40
2022-08-10T14:01:13.842Z,1.25
2022-08-10T14:03:42.556Z,1.23
2022-08-10T14:06:15.395Z,1.45
2022-08-10T14:08:49.461Z,1.42
2022-08-10T14:11:20.221Z,1.58
2022-08-10T14:14:00.033Z,1.35
2022-08-10T14:16:28.185Z,1.20
2022-08-10T14:18:57.989Z,1.17
2022-08-10T14:21:25.041Z,1.55
2022-08-10T14:23:53.809Z,1.20
2022-08-10T14:26:29.438Z,1.50
2022-08-10T14:29:19.909Z,1.60
2022-08-10T14:32:00.534Z,1.52
2022-08-10T14:36:16.160Z,1.40
2022-08-10T14:37:37.891Z,1.48
2022-08-10T14:40:10.140Z,1.55
2022-08-10T14:43:06.141Z,1.27
2022-08-10T14:45:39.389Z,1.25
2022-08-10T14:48:31.717Z,1.20
2022-08-10T14:51:00.875Z,1.55
2022-08-10T14:53:34.580Z,1.30
2022-08-10T14:56:06.618Z,1.25
2022-08-10T14:58:59.414Z,1.50
2022-08-10T15:02:37.214Z,1.17
2022-08-10T15:04:22.150Z,1.23
2022-08-10T15:06:54.122Z,1.27
2022-08-10T15:09:25.271Z,1.40
2022-08-10T15:12:15.294Z,1.15
2022-08-10T15:14:46.721Z,1.38
2022-08-10T15:17:26.358Z,1.60
2022-08-10T15:20:02.043Z,1.40
2022-08-10T15:22:39.469Z,1.33
2022-08-10T15:25:18.612Z,1.50
2022-08-10T15:28:05.517Z,1.20
2022-08-10T15:31:03.779Z,1.42
2022-08-10T15:34:05.202Z,1.40
2022-08-10T15:37:54.368Z,1.20
2022-08-10T15:40:21.171Z,1.20
2022-08-10T15:43:00.094Z,1.27
2022-08-10T15:45:27.626Z,1.25
2022-08-10T15:48:03.355Z,1.33
2022-08-10T15:50:43.929Z,1.40
2022-08-10T15:53:17.125Z,1.25
2022-08-10T15:55:51.888Z,1.17
2022-08-10T15:58:46.081Z,1.20
2022-08-10T16:02:04.694Z,1.40
2022-08-10T16:04:31.897Z,1.35
2022-08-10T16:07:07.135Z,1.13
2022-08-10T16:10:24.277Z,1.67
2022-08-10T16:12:59.199Z,1.25
2022-08-10T16:15:28.953Z,1.48
2022-08-10T16:18:09.234Z,1.38
2022-08-10T16:20:52.998Z,1.60
2022-08-10T16:23:34.923Z,1.45
2022-08-10T16:26:14.508Z,1.45
2022-08-10T16:28:46.398Z,1.38
2022-08-10T16:31:19.242Z,1.25
2022-08-10T16:33:55.049Z,1.30
2022-08-10T16:36:30.648Z,1.15
2022-08-10T16:38:58.803Z,1.52
2022-08-10T16:42:04.745Z,1.40
2022-08-10T16:44:18.608Z,1.20
2022-08-10T16:46:46.390Z,1.50
2022-08-10T16:49:17.955Z,1.50
2022-08-10T16:51:48.044Z,1.20
2022-08-10T16:54:22.360Z,1.30
2022-08-10T16:56:52.938Z,1.15
2022-08-10T16:59:24.288Z,1.40
2022-08-10T17:01:54.022Z,1.30
2022-08-10T17:04:23.444Z,1.30
2022-08-10T17:06:56.373Z,1.42
2022-08-10T17:09:34.598Z,1.30
2022-08-10T17:12:10.679Z,1.27
2022-08-10T17:14:43.346Z,1.10
2022-08-10T17:17:20.965Z,1.40
2022-08-10T17:19:49.110Z,1.10
2022-08-10T17:22:21.013Z,1.55
2022-08-10T17:25:12.916Z,1.63
2022-08-10T17:28:05.487Z,1.50
2022-08-10T17:30:34.053Z,1.15
2022-08-10T17:33:13.465Z,1.50
2022-08-10T17:35:45.689Z,1.30
2022-08-10T17:38:23.529Z,1.35
2022-08-10T17:41:08.457Z,1.30
2022-08-10T17:44:00.899Z,1.27
2022-08-10T17:46:27.324Z,1.48
2022-08-10T17:48:55.482Z,1.42
2022-08-10T17:51:30.490Z,1.50
2022-08-10T17:54:00.171Z,1.50
2022-08-10T17:56:31.627Z,1.20
2022-08-10T17:59:02.517Z,1.63
2022-08-10T18:01:41.287Z,1.50
2022-08-10T18:04:20.879Z,1.42
2022-08-10T18:06:59.442Z,1.58
2022-08-10T18:09:52.346Z,1.42
2022-08-10T18:12:32.103Z,1.42
2022-08-10T18:15:12.122Z,1.60
2022-08-10T18:17:44.671Z,1.60
2022-08-10T18:20:13.262Z,1.05
2022-08-10T18:22:45.241Z,1.42
2022-08-10T18:25:29.390Z,1.60
2022-08-10T18:28:01.177Z,1.45
2022-08-10T18:30:36.576Z,1.63
2022-08-10T18:33:09.149Z,1.10
2022-08-10T18:35:37.265Z,1.40
2022-08-10T18:38:06.329Z,1.35
2022-08-10T18:40:35.628Z,1.40
2022-08-10T18:44:04.331Z,1.88
2022-08-10T18:45:57.170Z,1.25
2022-08-10T18:48:33.130Z,1.23
2022-08-10T18:51:05.681Z,1.35
2022-08-10T18:53:48.727Z,1.70
2022-08-10T18:56:21.275Z,1.40
2022-08-10T18:59:27.126Z,1.45
2022-08-10T19:02:06.471Z,1.33
2022-08-10T19:05:30.111Z,1.40
2022-08-10T19:08:30.356Z,1.75
2022-08-10T19:11:03.961Z,1.55
2022-08-10T19:14:00.632Z,1.48
2022-08-10T19:16:36.462Z,1.90
2022-08-10T19:19:23.019Z,1.80
2022-08-10T19:21:56.397Z,1.77
2022-08-10T19:24:36.364Z,2.10
2022-08-10T19:27:22.524Z,1.90
2022-08-10T19:30:13.494Z,2.20
2022-08-10T19:33:00.832Z,1.58
2022-08-10T19:36:04.548Z,1.70
2022-08-10T19:38:33.085Z,2.42
2022-08-10T19:41:20.500Z,1.80
2022-08-10T19:44:54.916Z,1.70
2022-08-10T19:47:50.974Z,1.90
2022-08-10T19:50:37.228Z,1.58
2022-08-10T19:53:03.888Z,1.88
2022-08-10T19:55:50.400Z,2.30
2022-08-10T19:58:31.546Z,2.45
2022-08-10T20:01:07.109Z,2.80
2022-08-10T20:03:39.891Z,1.50
2022-08-10T20:06:20.148Z,1.67
2022-08-10T20:09:01.032Z,2.60
2022-08-10T20:11:47.169Z,2.55
2022-08-10T20:14:27.379Z,2.92
2022-08-10T20:17:02.391Z,2.33
2022-08-10T20:19:52.713Z,1.40
2022-08-10T20:22:29.490Z,1.60
2022-08-10T20:25:06.288Z,1.83
2022-08-10T20:27:59.498Z,1.60
2022-08-10T20:30:30.745Z,1.35
2022-08-10T20:33:18.217Z,1.65
2022-08-10T20:36:34.304Z,1.50
2022-08-10T20:39:05.795Z,1.50
2022-08-10T20:41:46.691Z,1.27
2022-08-10T20:44:28.353Z,1.55
2022-08-10T20:47:10.202Z,1.10
2022-08-10T20:49:52.400Z,1.73
2022-08-10T20:52:23.140Z,1.30
2022-08-10T20:54:53.844Z,1.55
2022-08-10T20:57:57.470Z,1.35
2022-08-10T21:00:41.259Z,1.70
2022-08-10T21:03:31.381Z,1.33
2022-08-10T21:06:07.850Z,1.33
2022-08-10T21:09:05.361Z,1.73
2022-08-10T21:11:49.465Z,1.60
2022-08-10T21:14:34.517Z,1.40
2022-08-10T21:17:35.731Z,1.60
2022-08-10T21:20:28.844Z,1.25
2022-08-10T21:22:59.361Z,1.60
2022-08-10T21:25:46.338Z,1.70
2022-08-10T21:28:25.154Z,1.20
2022-08-10T21:31:22.899Z,1.50
2022-08-10T21:33:58.327Z,1.50
2022-08-10T21:36:43.912Z,1.60
2022-08-10T21:39:51.731Z,1.52
2022-08-10T21:43:14.425Z,1.42
2022-08-10T21:46:02.869Z,1.55
2022-08-10T21:49:11.811Z,1.60
2022-08-10T21:52:16.251Z,1.63
2022-08-10T21:55:14.266Z,1.48
2022-08-10T21:58:20.799Z,1.67
2022-08-10T22:01:15.193Z,1.73
2022-08-10T22:04:01.895Z,1.60
2022-08-10T22:06:52.629Z,1.70
2022-08-10T22:09:48.769Z,2.03
2022-08-10T22:12:38.656Z,1.90
2022-08-10T22:16:03.467Z,1.67
2022-08-10T22:18:53.803Z,1.83
2022-08-10T22:22:07.331Z,1.83
2022-08-10T22:25:52.150Z,1.63
2022-08-10T22:28:38.190Z,1.33
2022-08-10T22:31:41.890Z,1.60
2022-08-10T22:35:05.264Z,2.03
2022-08-10T22:38:07.962Z,2.03
2022-08-10T22:40:53.506Z,1.45
2022-08-10T22:43:44.893Z,1.80
2022-08-10T22:46:38.340Z,1.80
2022-08-10T22:49:05.676Z,1.58
2022-08-10T22:51:57.775Z,1.70
2022-08-10T22:54:45.942Z,1.88
2022-08-10T22:57:34.432Z,1.60
2022-08-10T23:00:14.221Z,1.50
2022-08-10T23:02:51.925Z,1.50
2022-08-10T23:05:34.380Z,1.90
2022-08-10T23:08:30.290Z,1.60
2022-08-10T23:11:03.818Z,1.70
2022-08-10T23:13:36.042Z,1.50
2022-08-10T23:16:41.528Z,1.55
2022-08-10T23:19:37.394Z,2.22
2022-08-10T23:22:13.642Z,1.42
2022-08-10T23:25:03.187Z,1.92
2022-08-10T23:27:38.659Z,1.55
2022-08-10T23:30:17.784Z,2.03
2022-08-10T23:32:54.748Z,1.65
2022-08-10T23:36:04.461Z,1.80
2022-08-10T23:38:12.468Z,1.65
2022-08-10T23:40:45.356Z,1.70
2022-08-10T23:43:21.589Z,2.20
2022-08-10T23:45:57.337Z,1.80
2022-08-10T23:48:27.427Z,1.83
2022-08-10T23:50:59.372Z,2.05
2022-08-10T23:53:35.403Z,1.77
2022-08-10T23:56:10.484Z,1.70
2022-08-10T23:58:46.655Z,1.65
